sensor_id;sensor_type;location;lat;lon;timestamp;pressure;altitude;pressure_sealevel;temperature;humidity
55271;BME280;41132;47.162;9.470;2022-09-03T00:02:30;96285.09;;;16.22;100.00
55271;BME280;41132;47.162;9.470;2022-09-03T00:08:11;96280.41;;;16.17;100.00
55271;BME280;41132;47.162;9.470;2022-09-03T00:11:01;96274.22;;;16.03;100.00
55271;BME280;41132;47.162;9.470;2022-09-03T00:13:32;96277.50;;;15.77;100.00
55271;BME280;41132;47.162;9.470;2022-09-03T00:15:59;96260.06;;;15.83;100.00
55271;BME280;41132;47.162;9.470;2022-09-03T00:18:30;96257.59;;;15.81;100.00
55271;BME280;41132;47.162;9.470;2022-09-03T00:21:25;96257.81;;;15.86;100.00
55271;BME280;41132;47.162;9.470;2022-09-03T00:23:46;96264.50;;;15.82;100.00
55271;BME280;41132;47.162;9.470;2022-09-03T00:31:49;96265.50;;;15.75;100.00
55271;BME280;41132;47.162;9.470;2022-09-03T00:34:23;96266.03;;;15.70;100.00
55271;BME280;41132;47.162;9.470;2022-09-03T00:36:50;96263.13;;;15.86;100.00
55271;BME280;41132;47.162;9.470;2022-09-03T00:39:21;96256.75;;;15.74;100.00
55271;BME280;41132;47.162;9.470;2022-09-03T00:47:10;96251.84;;;15.50;100.00
55271;BME280;41132;47.162;9.470;2022-09-03T00:49:49;96251.31;;;15.61;100.00
55271;BME280;41132;47.162;9.470;2022-09-03T00:58:13;96259.19;;;15.76;100.00
55271;BME280;41132;47.162;9.470;2022-09-03T01:00:43;96252.66;;;15.72;100.00
55271;BME280;41132;47.162;9.470;2022-09-03T01:03:13;96255.47;;;15.70;100.00
55271;BME280;41132;47.162;9.470;2022-09-03T01:06:02;96249.56;;;15.40;100.00
55271;BME280;41132;47.162;9.470;2022-09-03T01:08:42;96242.63;;;15.67;100.00
55271;BME280;41132;47.162;9.470;2022-09-03T01:14:28;96247.06;;;15.66;100.00
55271;BME280;41132;47.162;9.470;2022-09-03T01:16:54;96243.69;;;15.73;100.00
55271;BME280;41132;47.162;9.470;2022-09-03T01:19:57;96245.38;;;15.52;100.00
55271;BME280;41132;47.162;9.470;2022-09-03T01:27:32;96245.94;;;15.76;100.00
55271;BME280;41132;47.162;9.470;2022-09-03T01:30:11;96242.41;;;15.69;100.00
55271;BME280;41132;47.162;9.470;2022-09-03T01:33:00;96234.66;;;15.60;100.00
55271;BME280;41132;47.162;9.470;2022-09-03T01:35:45;96236.44;;;15.81;100.00
55271;BME280;41132;47.162;9.470;2022-09-03T01:41:19;96248.06;;;15.59;100.00
55271;BME280;41132;47.162;9.470;2022-09-03T01:46:58;96246.91;;;15.68;100.00
55271;BME280;41132;47.162;9.470;2022-09-03T01:49:37;96248.06;;;15.87;100.00
55271;BME280;41132;47.162;9.470;2022-09-03T01:52:12;96255.75;;;15.82;100.00
55271;BME280;41132;47.162;9.470;2022-09-03T01:57:32;96262.22;;;15.73;100.00
55271;BME280;41132;47.162;9.470;2022-09-03T02:00:17;96266.13;;;15.55;100.00
55271;BME280;41132;47.162;9.470;2022-09-03T02:02:48;96276.56;;;15.63;100.00
55271;BME280;41132;47.162;9.470;2022-09-03T02:05:21;96278.72;;;15.75;100.00
55271;BME280;41132;47.162;9.470;2022-09-03T02:07:57;96277.31;;;15.79;100.00
55271;BME280;41132;47.162;9.470;2022-09-03T02:10:37;96268.94;;;16.03;100.00
55271;BME280;41132;47.162;9.470;2022-09-03T02:13:07;96286.94;;;15.86;100.00
55271;BME280;41132;47.162;9.470;2022-09-03T02:15:36;96287.75;;;15.87;100.00
55271;BME280;41132;47.162;9.470;2022-09-03T02:18:04;96283.31;;;15.66;100.00
55271;BME280;41132;47.162;9.470;2022-09-03T02:20:32;96295.91;;;15.64;100.00
55271;BME280;41132;47.162;9.470;2022-09-03T02:22:58;96282.69;;;15.64;100.00
55271;BME280;41132;47.162;9.470;2022-09-03T02:25:29;96298.63;;;15.71;100.00
55271;BME280;41132;47.162;9.470;2022-09-03T02:27:58;96306.00;;;15.75;100.00
55271;BME280;41132;47.162;9.470;2022-09-03T02:30:24;96296.94;;;15.91;100.00
55271;BME280;41132;47.162;9.470;2022-09-03T02:32:49;96307.78;;;16.03;100.00
55271;BME280;41132;47.162;9.470;2022-09-03T02:35:15;96314.75;;;16.04;100.00
55271;BME280;41132;47.162;9.470;2022-09-03T02:37:40;96309.31;;;15.84;100.00
55271;BME280;41132;47.162;9.470;2022-09-03T02:40:06;96312.59;;;15.86;100.00
55271;BME280;41132;47.162;9.470;2022-09-03T02:42:34;96311.59;;;15.65;100.00
55271;BME280;41132;47.162;9.470;2022-09-03T02:45:09;96320.88;;;15.76;100.00
55271;BME280;41132;47.162;9.470;2022-09-03T02:47:39;96305.47;;;15.86;100.00
55271;BME280;41132;47.162;9.470;2022-09-03T02:50:08;96306.28;;;15.87;100.00
55271;BME280;41132;47.162;9.470;2022-09-03T02:52:33;96297.56;;;15.93;100.00
55271;BME280;41132;47.162;9.470;2022-09-03T02:54:58;96304.34;;;16.02;100.00
55271;BME280;41132;47.162;9.470;2022-09-03T02:57:24;96302.03;;;15.93;100.00
55271;BME280;41132;47.162;9.470;2022-09-03T02:59:49;96317.75;;;15.94;100.00
55271;BME280;41132;47.162;9.470;2022-09-03T03:02:15;96318.19;;;16.04;100.00
55271;BME280;41132;47.162;9.470;2022-09-03T03:04:40;96317.38;;;16.04;100.00
55271;BME280;41132;47.162;9.470;2022-09-03T03:07:06;96315.41;;;16.13;100.00
55271;BME280;41132;47.162;9.470;2022-09-03T03:09:32;96306.44;;;16.14;100.00
55271;BME280;41132;47.162;9.470;2022-09-03T03:11:57;96324.03;;;16.28;100.00
55271;BME280;41132;47.162;9.470;2022-09-03T03:14:23;96309.09;;;16.14;100.00
55271;BME280;41132;47.162;9.470;2022-09-03T03:16:49;96305.00;;;16.11;100.00
55271;BME280;41132;47.162;9.470;2022-09-03T03:19:14;96328.25;;;16.16;100.00
55271;BME280;41132;47.162;9.470;2022-09-03T03:21:40;96313.56;;;16.13;100.00
55271;BME280;41132;47.162;9.470;2022-09-03T03:24:05;96317.38;;;16.04;100.00
55271;BME280;41132;47.162;9.470;2022-09-03T03:26:31;96312.50;;;16.07;100.00
55271;BME280;41132;47.162;9.470;2022-09-03T03:28:59;96310.34;;;16.18;100.00
55271;BME280;41132;47.162;9.470;2022-09-03T03:31:25;96311.16;;;16.18;100.00
55271;BME280;41132;47.162;9.470;2022-09-03T03:33:56;96317.06;;;16.20;100.00
55271;BME280;41132;47.162;9.470;2022-09-03T03:36:24;96327.84;;;16.19;100.00
55271;BME280;41132;47.162;9.470;2022-09-03T03:38:52;96331.00;;;16.01;100.00
55271;BME280;41132;47.162;9.470;2022-09-03T03:41:21;96324.75;;;16.08;100.00
55271;BME280;41132;47.162;9.470;2022-09-03T03:43:47;96327.75;;;16.05;100.00
55271;BME280;41132;47.162;9.470;2022-09-03T03:46:16;96326.81;;;16.13;100.00
55271;BME280;41132;47.162;9.470;2022-09-03T03:48:41;96323.09;;;16.07;100.00
55271;BME280;41132;47.162;9.470;2022-09-03T03:51:08;96326.66;;;15.93;100.00
55271;BME280;41132;47.162;9.470;2022-09-03T03:53:35;96334.78;;;15.92;100.00
55271;BME280;41132;47.162;9.470;2022-09-03T03:56:04;96329.72;;;15.90;100.00
55271;BME280;41132;47.162;9.470;2022-09-03T03:58:31;96328.31;;;15.94;100.00
55271;BME280;41132;47.162;9.470;2022-09-03T04:01:08;96329.13;;;15.95;100.00
55271;BME280;41132;47.162;9.470;2022-09-03T04:03:35;96331.38;;;15.98;100.00
55271;BME280;41132;47.162;9.470;2022-09-03T04:06:01;96324.84;;;15.94;100.00
55271;BME280;41132;47.162;9.470;2022-09-03T04:08:29;96311.38;;;15.89;100.00
55271;BME280;41132;47.162;9.470;2022-09-03T04:10:59;96322.88;;;16.02;100.00
55271;BME280;41132;47.162;9.470;2022-09-03T04:13:37;96320.84;;;16.04;100.00
55271;BME280;41132;47.162;9.470;2022-09-03T04:16:08;96326.38;;;16.10;100.00
55271;BME280;41132;47.162;9.470;2022-09-03T04:18:34;96326.03;;;15.91;100.00
55271;BME280;41132;47.162;9.470;2022-09-03T04:21:06;96321.78;;;15.90;100.00
55271;BME280;41132;47.162;9.470;2022-09-03T04:23:37;96316.13;;;16.00;100.00
55271;BME280;41132;47.162;9.470;2022-09-03T04:26:03;96324.06;;;16.00;100.00
55271;BME280;41132;47.162;9.470;2022-09-03T04:28:29;96313.44;;;15.65;100.00
55271;BME280;41132;47.162;9.470;2022-09-03T04:30:59;96313.50;;;15.72;100.00
55271;BME280;41132;47.162;9.470;2022-09-03T04:33:25;96306.44;;;15.57;100.00
55271;BME280;41132;47.162;9.470;2022-09-03T04:35:50;96316.97;;;15.72;100.00
55271;BME280;41132;47.162;9.470;2022-09-03T04:38:16;96326.44;;;15.88;100.00
55271;BME280;41132;47.162;9.470;2022-09-03T04:40:41;96321.69;;;15.77;100.00
55271;BME280;41132;47.162;9.470;2022-09-03T04:43:06;96323.97;;;15.86;100.00
55271;BME280;41132;47.162;9.470;2022-09-03T04:45:32;96326.16;;;15.76;100.00
55271;BME280;41132;47.162;9.470;2022-09-03T04:47:59;96322.25;;;15.72;100.00
55271;BME280;41132;47.162;9.470;2022-09-03T04:50:24;96316.78;;;15.74;100.00
55271;BME280;41132;47.162;9.470;2022-09-03T04:52:58;96321.50;;;15.85;100.00
55271;BME280;41132;47.162;9.470;2022-09-03T04:55:24;96320.66;;;15.78;100.00
55271;BME280;41132;47.162;9.470;2022-09-03T04:57:49;96318.81;;;15.72;100.00
55271;BME280;41132;47.162;9.470;2022-09-03T05:00:15;96322.78;;;15.89;100.00
55271;BME280;41132;47.162;9.470;2022-09-03T05:02:43;96318.88;;;16.13;100.00
55271;BME280;41132;47.162;9.470;2022-09-03T05:05:10;96322.59;;;15.91;100.00
55271;BME280;41132;47.162;9.470;2022-09-03T05:07:36;96315.69;;;15.96;100.00
55271;BME280;41132;47.162;9.470;2022-09-03T05:10:09;96336.41;;;15.86;100.00
55271;BME280;41132;47.162;9.470;2022-09-03T05:12:45;96329.81;;;15.75;100.00
55271;BME280;41132;47.162;9.470;2022-09-03T05:15:10;96344.78;;;15.68;100.00
55271;BME280;41132;47.162;9.470;2022-09-03T05:17:35;96328.72;;;15.70;100.00
55271;BME280;41132;47.162;9.470;2022-09-03T05:20:03;96326.22;;;15.90;100.00
55271;BME280;41132;47.162;9.470;2022-09-03T05:22:29;96336.19;;;16.16;100.00
55271;BME280;41132;47.162;9.470;2022-09-03T05:24:54;96335.25;;;15.95;100.00
55271;BME280;41132;47.162;9.470;2022-09-03T05:27:20;96331.78;;;15.95;100.00
55271;BME280;41132;47.162;9.470;2022-09-03T05:29:45;96326.06;;;15.70;100.00
55271;BME280;41132;47.162;9.470;2022-09-03T05:32:11;96342.31;;;15.88;100.00
55271;BME280;41132;47.162;9.470;2022-09-03T05:34:37;96337.44;;;16.20;100.00
55271;BME280;41132;47.162;9.470;2022-09-03T05:37:03;96352.19;;;16.36;100.00
55271;BME280;41132;47.162;9.470;2022-09-03T05:39:28;96352.03;;;16.09;100.00
55271;BME280;41132;47.162;9.470;2022-09-03T05:41:54;96346.81;;;15.88;100.00
55271;BME280;41132;47.162;9.470;2022-09-03T05:44:19;96345.00;;;15.95;100.00
55271;BME280;41132;47.162;9.470;2022-09-03T05:46:48;96349.16;;;16.04;100.00
55271;BME280;41132;47.162;9.470;2022-09-03T05:49:14;96353.09;;;16.15;100.00
55271;BME280;41132;47.162;9.470;2022-09-03T05:51:39;96355.75;;;16.21;100.00
55271;BME280;41132;47.162;9.470;2022-09-03T05:54:07;96353.69;;;16.10;100.00
55271;BME280;41132;47.162;9.470;2022-09-03T05:56:34;96366.66;;;16.05;100.00
55271;BME280;41132;47.162;9.470;2022-09-03T05:59:01;96356.56;;;16.15;100.00
55271;BME280;41132;47.162;9.470;2022-09-03T06:01:32;96361.13;;;16.35;100.00
55271;BME280;41132;47.162;9.470;2022-09-03T06:04:12;96355.50;;;16.44;100.00
55271;BME280;41132;47.162;9.470;2022-09-03T06:06:40;96346.34;;;16.47;100.00
55271;BME280;41132;47.162;9.470;2022-09-03T06:09:11;96347.75;;;16.43;100.00
55271;BME280;41132;47.162;9.470;2022-09-03T06:11:38;96356.34;;;16.52;100.00
55271;BME280;41132;47.162;9.470;2022-09-03T06:14:06;96346.13;;;16.48;100.00
55271;BME280;41132;47.162;9.470;2022-09-03T06:16:33;96353.59;;;16.73;100.00
55271;BME280;41132;47.162;9.470;2022-09-03T06:18:59;96358.97;;;16.86;100.00
55271;BME280;41132;47.162;9.470;2022-09-03T06:21:26;96351.00;;;16.86;100.00
55271;BME280;41132;47.162;9.470;2022-09-03T06:23:53;96359.22;;;17.05;100.00
55271;BME280;41132;47.162;9.470;2022-09-03T06:26:22;96381.94;;;17.27;100.00
55271;BME280;41132;47.162;9.470;2022-09-03T06:28:48;96385.59;;;17.20;100.00
55271;BME280;41132;47.162;9.470;2022-09-03T06:31:16;96390.34;;;17.38;100.00
55271;BME280;41132;47.162;9.470;2022-09-03T06:33:43;96389.34;;;17.59;100.00
55271;BME280;41132;47.162;9.470;2022-09-03T06:36:11;96392.19;;;17.64;100.00
55271;BME280;41132;47.162;9.470;2022-09-03T06:38:38;96380.38;;;17.80;100.00
55271;BME280;41132;47.162;9.470;2022-09-03T06:41:08;96376.09;;;17.79;100.00
55271;BME280;41132;47.162;9.470;2022-09-03T06:43:39;96369.16;;;17.91;100.00
55271;BME280;41132;47.162;9.470;2022-09-03T06:46:16;96368.56;;;17.89;100.00
55271;BME280;41132;47.162;9.470;2022-09-03T06:48:42;96365.69;;;17.90;100.00
55271;BME280;41132;47.162;9.470;2022-09-03T06:51:13;96373.88;;;17.89;100.00
55271;BME280;41132;47.162;9.470;2022-09-03T06:53:43;96371.22;;;17.95;100.00
55271;BME280;41132;47.162;9.470;2022-09-03T06:56:11;96374.91;;;17.88;100.00
55271;BME280;41132;47.162;9.470;2022-09-03T06:58:38;96382.44;;;17.91;100.00
55271;BME280;41132;47.162;9.470;2022-09-03T07:03:38;96378.75;;;18.05;100.00
55271;BME280;41132;47.162;9.470;2022-09-03T07:06:06;96366.91;;;18.14;100.00
55271;BME280;41132;47.162;9.470;2022-09-03T07:08:32;96358.09;;;18.21;100.00
55271;BME280;41132;47.162;9.470;2022-09-03T07:11:03;96354.66;;;18.13;100.00
55271;BME280;41132;47.162;9.470;2022-09-03T07:13:34;96351.81;;;18.08;100.00
55271;BME280;41132;47.162;9.470;2022-09-03T07:16:11;96342.19;;;18.14;100.00
55271;BME280;41132;47.162;9.470;2022-09-03T07:18:37;96352.78;;;18.27;100.00
55271;BME280;41132;47.162;9.470;2022-09-03T07:21:07;96357.69;;;18.30;100.00
55271;BME280;41132;47.162;9.470;2022-09-03T07:23:34;96358.91;;;18.28;100.00
55271;BME280;41132;47.162;9.470;2022-09-03T07:26:02;96348.09;;;18.23;100.00
55271;BME280;41132;47.162;9.470;2022-09-03T07:28:28;96342.34;;;18.32;100.00
55271;BME280;41132;47.162;9.470;2022-09-03T07:31:05;96340.56;;;18.06;100.00
55271;BME280;41132;47.162;9.470;2022-09-03T07:33:31;96332.41;;;18.08;100.00
55271;BME280;41132;47.162;9.470;2022-09-03T07:36:12;96342.78;;;18.16;100.00
55271;BME280;41132;47.162;9.470;2022-09-03T07:38:39;96333.16;;;18.35;100.00
55271;BME280;41132;47.162;9.470;2022-09-03T07:41:07;96338.22;;;18.50;100.00
55271;BME280;41132;47.162;9.470;2022-09-03T07:43:35;96330.41;;;18.62;100.00
55271;BME280;41132;47.162;9.470;2022-09-03T07:46:01;96341.91;;;18.55;100.00
55271;BME280;41132;47.162;9.470;2022-09-03T07:48:27;96340.16;;;18.88;100.00
55271;BME280;41132;47.162;9.470;2022-09-03T07:50:57;96337.53;;;19.19;100.00
55271;BME280;41132;47.162;9.470;2022-09-03T07:53:24;96339.75;;;19.54;100.00
55271;BME280;41132;47.162;9.470;2022-09-03T07:55:49;96324.25;;;20.01;100.00
55271;BME280;41132;47.162;9.470;2022-09-03T07:58:15;96328.75;;;20.01;100.00
55271;BME280;41132;47.162;9.470;2022-09-03T08:00:42;96316.84;;;20.03;97.79
55271;BME280;41132;47.162;9.470;2022-09-03T08:03:07;96324.13;;;20.33;100.00
55271;BME280;41132;47.162;9.470;2022-09-03T08:05:35;96314.81;;;20.42;98.59
55271;BME280;41132;47.162;9.470;2022-09-03T08:08:04;96322.41;;;20.39;98.68
55271;BME280;41132;47.162;9.470;2022-09-03T08:10:33;96305.91;;;20.49;99.50
55271;BME280;41132;47.162;9.470;2022-09-03T08:12:59;96308.72;;;20.54;100.00
55271;BME280;41132;47.162;9.470;2022-09-03T08:15:25;96310.28;;;20.43;100.00
55271;BME280;41132;47.162;9.470;2022-09-03T08:17:51;96312.94;;;19.81;100.00
55271;BME280;41132;47.162;9.470;2022-09-03T08:20:17;96317.66;;;19.54;100.00
55271;BME280;41132;47.162;9.470;2022-09-03T08:22:42;96307.81;;;19.54;100.00
55271;BME280;41132;47.162;9.470;2022-09-03T08:25:08;96311.03;;;19.88;100.00
55271;BME280;41132;47.162;9.470;2022-09-03T08:27:34;96304.66;;;20.33;96.10
55271;BME280;41132;47.162;9.470;2022-09-03T08:29:59;96302.34;;;20.36;100.00
55271;BME280;41132;47.162;9.470;2022-09-03T08:32:25;96302.06;;;20.81;96.21
55271;BME280;41132;47.162;9.470;2022-09-03T08:34:50;96279.09;;;20.80;93.58
55271;BME280;41132;47.162;9.470;2022-09-03T08:37:17;96289.19;;;20.78;90.34
55271;BME280;41132;47.162;9.470;2022-09-03T08:39:43;96296.16;;;20.91;91.63
55271;BME280;41132;47.162;9.470;2022-09-03T08:42:20;96294.19;;;20.86;100.00
55271;BME280;41132;47.162;9.470;2022-09-03T08:44:56;96303.00;;;21.17;95.64
55271;BME280;41132;47.162;9.470;2022-09-03T08:47:25;96301.28;;;20.93;92.99
55271;BME280;41132;47.162;9.470;2022-09-03T08:53:18;96296.03;;;20.86;88.61
55271;BME280;41132;47.162;9.470;2022-09-03T08:55:58;96297.22;;;20.90;91.79
55271;BME280;41132;47.162;9.470;2022-09-03T08:58:26;96296.41;;;20.53;87.38
55271;BME280;41132;47.162;9.470;2022-09-03T09:01:22;96296.28;;;20.48;89.14
55271;BME280;41132;47.162;9.470;2022-09-03T09:12:44;96284.53;;;20.74;93.66
55271;BME280;41132;47.162;9.470;2022-09-03T09:15:28;96271.56;;;20.89;96.44
55271;BME280;41132;47.162;9.470;2022-09-03T09:18:04;96279.69;;;21.13;90.60
55271;BME280;41132;47.162;9.470;2022-09-03T09:21:01;96286.53;;;21.20;86.00
55271;BME280;41132;47.162;9.470;2022-09-03T09:23:35;96285.16;;;21.30;85.23
55271;BME280;41132;47.162;9.470;2022-09-03T09:26:06;96281.47;;;21.31;91.04
55271;BME280;41132;47.162;9.470;2022-09-03T09:28:35;96266.84;;;21.33;82.54
55271;BME280;41132;47.162;9.470;2022-09-03T09:31:03;96285.31;;;21.35;80.15
55271;BME280;41132;47.162;9.470;2022-09-03T09:33:29;96266.91;;;21.03;89.11
55271;BME280;41132;47.162;9.470;2022-09-03T09:35:58;96269.94;;;20.39;96.62
55271;BME280;41132;47.162;9.470;2022-09-03T09:38:29;96276.91;;;20.22;100.00
55271;BME280;41132;47.162;9.470;2022-09-03T09:40:54;96272.81;;;20.75;91.47
55271;BME280;41132;47.162;9.470;2022-09-03T09:43:21;96272.31;;;20.96;96.66
55271;BME280;41132;47.162;9.470;2022-09-03T09:45:50;96270.44;;;20.48;99.24
55271;BME280;41132;47.162;9.470;2022-09-03T09:48:30;96264.00;;;20.74;89.00
55271;BME280;41132;47.162;9.470;2022-09-03T09:51:18;96260.19;;;21.12;94.18
55271;BME280;41132;47.162;9.470;2022-09-03T09:53:44;96260.66;;;20.79;100.00
55271;BME280;41132;47.162;9.470;2022-09-03T09:56:24;96248.16;;;20.61;100.00
55271;BME280;41132;47.162;9.470;2022-09-03T09:59:00;96257.97;;;20.79;99.70
55271;BME280;41132;47.162;9.470;2022-09-03T10:01:25;96239.94;;;20.93;99.39
55271;BME280;41132;47.162;9.470;2022-09-03T10:04:24;96243.41;;;21.35;100.00
55271;BME280;41132;47.162;9.470;2022-09-03T10:06:54;96249.41;;;21.19;98.74
55271;BME280;41132;47.162;9.470;2022-09-03T10:09:26;96244.16;;;21.66;100.00
55271;BME280;41132;47.162;9.470;2022-09-03T10:14:49;96248.47;;;21.67;97.71
55271;BME280;41132;47.162;9.470;2022-09-03T10:17:24;96256.06;;;21.40;100.00
55271;BME280;41132;47.162;9.470;2022-09-03T10:23:42;96255.47;;;21.38;94.77
55271;BME280;41132;47.162;9.470;2022-09-03T10:25:56;96260.28;;;21.47;98.55
55271;BME280;41132;47.162;9.470;2022-09-03T10:28:28;96263.19;;;21.16;99.40
55271;BME280;41132;47.162;9.470;2022-09-03T10:33:46;96262.91;;;20.63;100.00
55271;BME280;41132;47.162;9.470;2022-09-03T10:36:27;96260.75;;;20.54;100.00
55271;BME280;41132;47.162;9.470;2022-09-03T10:39:10;96260.91;;;20.59;100.00
55271;BME280;41132;47.162;9.470;2022-09-03T10:50:09;96238.56;;;20.60;100.00
55271;BME280;41132;47.162;9.470;2022-09-03T10:56:14;96237.03;;;20.64;100.00
55271;BME280;41132;47.162;9.470;2022-09-03T11:01:40;96230.69;;;20.47;100.00
55271;BME280;41132;47.162;9.470;2022-09-03T11:07:03;96246.47;;;20.67;100.00
55271;BME280;41132;47.162;9.470;2022-09-03T11:09:47;96256.75;;;20.63;100.00
55271;BME280;41132;47.162;9.470;2022-09-03T11:12:45;96268.22;;;20.45;100.00
55271;BME280;41132;47.162;9.470;2022-09-03T11:15:25;96276.22;;;20.45;100.00
55271;BME280;41132;47.162;9.470;2022-09-03T11:20:32;96285.69;;;20.41;100.00
55271;BME280;41132;47.162;9.470;2022-09-03T11:23:02;96279.69;;;20.27;100.00
55271;BME280;41132;47.162;9.470;2022-09-03T11:25:36;96277.19;;;20.32;100.00
55271;BME280;41132;47.162;9.470;2022-09-03T11:28:22;96273.50;;;20.15;96.98
55271;BME280;41132;47.162;9.470;2022-09-03T11:33:28;96286.94;;;20.01;95.48
55271;BME280;41132;47.162;9.470;2022-09-03T11:36:01;96293.59;;;19.92;100.00
55271;BME280;41132;47.162;9.470;2022-09-03T11:38:30;96294.91;;;19.83;100.00
55271;BME280;41132;47.162;9.470;2022-09-03T11:41:22;96301.50;;;19.80;100.00
55271;BME280;41132;47.162;9.470;2022-09-03T11:43:50;96308.81;;;19.85;100.00
55271;BME280;41132;47.162;9.470;2022-09-03T11:49:11;96330.28;;;19.33;100.00
55271;BME280;41132;47.162;9.470;2022-09-03T11:51:39;96345.84;;;18.91;100.00
55271;BME280;41132;47.162;9.470;2022-09-03T11:56:41;96365.56;;;18.64;100.00
55271;BME280;41132;47.162;9.470;2022-09-03T12:01:42;96368.09;;;18.39;100.00
55271;BME280;41132;47.162;9.470;2022-09-03T12:04:13;96365.69;;;18.17;100.00
55271;BME280;41132;47.162;9.470;2022-09-03T12:12:44;96407.53;;;17.75;100.00
55271;BME280;41132;47.162;9.470;2022-09-03T12:18:07;96411.59;;;17.51;100.00
55271;BME280;41132;47.162;9.470;2022-09-03T12:23:44;96413.63;;;17.49;100.00
55271;BME280;41132;47.162;9.470;2022-09-03T12:26:15;96405.88;;;17.67;100.00
55271;BME280;41132;47.162;9.470;2022-09-03T12:28:51;96405.91;;;18.01;100.00
55271;BME280;41132;47.162;9.470;2022-09-03T12:34:06;96427.97;;;18.28;100.00
55271;BME280;41132;47.162;9.470;2022-09-03T12:36:38;96429.81;;;18.41;100.00
55271;BME280;41132;47.162;9.470;2022-09-03T12:39:13;96440.00;;;18.50;100.00
55271;BME280;41132;47.162;9.470;2022-09-03T12:42:02;96441.66;;;18.51;100.00
55271;BME280;41132;47.162;9.470;2022-09-03T12:47:05;96432.75;;;18.97;100.00
55271;BME280;41132;47.162;9.470;2022-09-03T12:49:42;96436.66;;;18.95;100.00
55271;BME280;41132;47.162;9.470;2022-09-03T12:52:25;96444.19;;;19.05;100.00
55271;BME280;41132;47.162;9.470;2022-09-03T12:57:49;96443.19;;;18.99;100.00
55271;BME280;41132;47.162;9.470;2022-09-03T13:00:17;96436.69;;;18.75;100.00
55271;BME280;41132;47.162;9.470;2022-09-03T13:05:36;96437.50;;;18.75;100.00
55271;BME280;41132;47.162;9.470;2022-09-03T13:08:07;96432.00;;;18.77;100.00
55271;BME280;41132;47.162;9.470;2022-09-03T13:10:37;96443.44;;;18.64;100.00
55271;BME280;41132;47.162;9.470;2022-09-03T13:13:29;96443.28;;;18.52;100.00
55271;BME280;41132;47.162;9.470;2022-09-03T13:19:07;96445.94;;;18.52;100.00
55271;BME280;41132;47.162;9.470;2022-09-03T13:27:41;96451.06;;;18.47;100.00
55271;BME280;41132;47.162;9.470;2022-09-03T13:30:18;96444.13;;;18.46;100.00
55271;BME280;41132;47.162;9.470;2022-09-03T13:35:25;96441.63;;;18.65;100.00
55271;BME280;41132;47.162;9.470;2022-09-03T13:37:55;96434.91;;;18.62;100.00
55271;BME280;41132;47.162;9.470;2022-09-03T13:40:30;96433.03;;;18.83;100.00
55271;BME280;41132;47.162;9.470;2022-09-03T13:43:08;96434.19;;;18.93;100.00
55271;BME280;41132;47.162;9.470;2022-09-03T13:45:44;96426.88;;;18.82;100.00
55271;BME280;41132;47.162;9.470;2022-09-03T13:48:37;96431.16;;;18.90;100.00
55271;BME280;41132;47.162;9.470;2022-09-03T13:53:57;96429.13;;;18.92;100.00
55271;BME280;41132;47.162;9.470;2022-09-03T13:59:00;96420.75;;;18.68;100.00
55271;BME280;41132;47.162;9.470;2022-09-03T14:01:57;96425.25;;;18.68;100.00
55271;BME280;41132;47.162;9.470;2022-09-03T14:07:37;96427.25;;;18.99;100.00
55271;BME280;41132;47.162;9.470;2022-09-03T14:15:44;96409.84;;;19.03;100.00
55271;BME280;41132;47.162;9.470;2022-09-03T14:21:35;96386.38;;;18.87;100.00
55271;BME280;41132;47.162;9.470;2022-09-03T14:26:36;96382.34;;;18.57;100.00
55271;BME280;41132;47.162;9.470;2022-09-03T14:40:30;96391.31;;;18.63;100.00
55271;BME280;41132;47.162;9.470;2022-09-03T14:50:56;96401.50;;;18.73;100.00
55271;BME280;41132;47.162;9.470;2022-09-03T14:56:27;96415.41;;;18.75;100.00
55271;BME280;41132;47.162;9.470;2022-09-03T15:01:34;96402.13;;;18.75;100.00
55271;BME280;41132;47.162;9.470;2022-09-03T15:10:05;96392.97;;;18.57;100.00
55271;BME280;41132;47.162;9.470;2022-09-03T15:15:22;96400.50;;;18.74;100.00
55271;BME280;41132;47.162;9.470;2022-09-03T15:18:01;96405.41;;;18.84;100.00
55271;BME280;41132;47.162;9.470;2022-09-03T15:20:31;96408.25;;;18.89;100.00
55271;BME280;41132;47.162;9.470;2022-09-03T15:31:10;96394.53;;;18.92;100.00
55271;BME280;41132;47.162;9.470;2022-09-03T15:33:53;96386.97;;;18.89;100.00
55271;BME280;41132;47.162;9.470;2022-09-03T15:36:25;96392.25;;;18.95;100.00
55271;BME280;41132;47.162;9.470;2022-09-03T15:39:27;96395.75;;;18.89;100.00
55271;BME280;41132;47.162;9.470;2022-09-03T15:41:58;96396.16;;;18.93;100.00
55271;BME280;41132;47.162;9.470;2022-09-03T15:44:27;96401.50;;;18.86;100.00
55271;BME280;41132;47.162;9.470;2022-09-03T15:47:01;96400.06;;;18.90;100.00
55271;BME280;41132;47.162;9.470;2022-09-03T15:49:54;96396.22;;;18.80;100.00
55271;BME280;41132;47.162;9.470;2022-09-03T15:55:21;96399.91;;;18.72;100.00
55271;BME280;41132;47.162;9.470;2022-09-03T15:57:57;96404.19;;;18.66;100.00
55271;BME280;41132;47.162;9.470;2022-09-03T16:03:13;96393.16;;;18.69;100.00
55271;BME280;41132;47.162;9.470;2022-09-03T16:11:06;96407.63;;;18.87;100.00
55271;BME280;41132;47.162;9.470;2022-09-03T16:17:00;96404.78;;;18.82;100.00
55271;BME280;41132;47.162;9.470;2022-09-03T16:19:51;96401.94;;;18.83;100.00
55271;BME280;41132;47.162;9.470;2022-09-03T16:22:26;96408.84;;;18.91;100.00
55271;BME280;41132;47.162;9.470;2022-09-03T16:25:06;96406.59;;;18.94;100.00
55271;BME280;41132;47.162;9.470;2022-09-03T16:27:39;96400.25;;;18.95;100.00
55271;BME280;41132;47.162;9.470;2022-09-03T16:30:10;96403.50;;;18.97;100.00
55271;BME280;41132;47.162;9.470;2022-09-03T16:32:45;96413.38;;;18.90;100.00
55271;BME280;41132;47.162;9.470;2022-09-03T16:35:30;96405.19;;;18.92;100.00